Fairchem Blade — HPXU — position and weather

sailwx.info

Track history (hours):
 
Tides and Currents Weather Stations Pressure Air Temp Water Temp Dewpoint Dewpoint Depression Visibility Wind Speed Wind Dir Waves Ship Positions

Fairchem Blade

Last reported at 2018-Jan-22 17:51 UTC. Time now 2018-Jan-23 11:47 UTC.
Position N 01°14' E 103°58'.

Length 147 m; draft 9.9 m.

Type: Ship (hazmat cat B). MMSI: 371085000.

Date/timePositionNaut miles runAvg speedWind from/ knotsBaromVisibWave heightAir tempDewpointWater temp
2018-Jan-22 17:51N 01°14' E 103°58'512.0
2018-Jan-22 17:28N 01°12' E 103°53'611.3
2018-Jan-22 16:56N 01°10' E 103°48'511.7
2018-Jan-22 16:30N 01°06' E 103°44'612.3
2018-Jan-22 16:00N 01°03' E 103°39'610.9
2018-Jan-22 15:29N 01°06' E 103°35'4 8.2
2018-Jan-22 14:58N 01°10' E 103°35'510.0
2018-Jan-22 14:30N 01°11' E 103°39'2 4.1
2018-Jan-22 14:00N 01°11' E 103°41'1 1.3
2018-Jan-22 13:16N 01°12' E 103°41'0 0.0
2018-Jan-22 12:55N 01°12' E 103°41'0 0.0
2018-Jan-22 12:19N 01°12' E 103°41'0 0.0
2018-Jan-22 11:55N 01°12' E 103°41'0 0.0
2018-Jan-22 11:25N 01°12' E 103°41'0 0.0
2018-Jan-22 10:49N 01°12' E 103°41'0 0.0
2018-Jan-22 10:28N 01°12' E 103°41'0 0.0
2018-Jan-22 09:58N 01°12' E 103°41'0 0.0
2018-Jan-22 09:25N 01°12' E 103°41'0 0.1
2018-Jan-22 08:58N 01°12' E 103°42'0 0.0
2018-Jan-22 08:28N 01°12' E 103°42'0 0.1
2018-Jan-22 07:58N 01°12' E 103°42'0 0.0
2018-Jan-22 07:28N 01°12' E 103°42'0 0.0
2018-Jan-22 06:58N 01°12' E 103°42'0 0.1
2018-Jan-22 06:19N 01°12' E 103°42'0 0.2
2018-Jan-22 06:01N 01°12' E 103°41'2 3.1
2018-Jan-22 05:30N 01°12' E 103°40'4 6.6
2018-Jan-22 04:58N 01°13' E 103°36'3 5.8
2018-Jan-22 04:30N 01°11' E 103°34'4 6.9
2018-Jan-22 03:59N 01°10' E 103°31'5 9.7
2018-Jan-22 03:30N 01°10' E 103°26'611.6
2018-Jan-22 02:59N 01°14' E 103°22'  
Track history (hours):
 
Tides and Currents Weather Stations Pressure Air Temp Water Temp Dewpoint Dewpoint Depression Visibility Wind Speed Wind Dir Waves Ship Positions

Fairchem Blade

Last reported at 2018-Jan-22 17:51 UTC. Time now 2018-Jan-23 11:47 UTC.
Position N 01°14' E 103°58'.

Length 147 m; draft 9.9 m.

Type: Ship (hazmat cat B). MMSI: 371085000.

Date/timePositionNaut miles runAvg speedWind from/ knotsBaromVisibWave heightAir tempDewpointWater temp
2018-Jan-22 17:51N 01°14' E 103°58'512.0
2018-Jan-22 17:28N 01°12' E 103°53'611.3
2018-Jan-22 16:56N 01°10' E 103°48'511.7
2018-Jan-22 16:30N 01°06' E 103°44'612.3
2018-Jan-22 16:00N 01°03' E 103°39'610.9
2018-Jan-22 15:29N 01°06' E 103°35'4 8.2
2018-Jan-22 14:58N 01°10' E 103°35'510.0
2018-Jan-22 14:30N 01°11' E 103°39'2 4.1
2018-Jan-22 14:00N 01°11' E 103°41'1 1.3
2018-Jan-22 13:16N 01°12' E 103°41'0 0.0
2018-Jan-22 12:55N 01°12' E 103°41'0 0.0
2018-Jan-22 12:19N 01°12' E 103°41'0 0.0
2018-Jan-22 11:55N 01°12' E 103°41'0 0.0
2018-Jan-22 11:25N 01°12' E 103°41'0 0.0
2018-Jan-22 10:49N 01°12' E 103°41'0 0.0
2018-Jan-22 10:28N 01°12' E 103°41'0 0.0
2018-Jan-22 09:58N 01°12' E 103°41'0 0.0
2018-Jan-22 09:25N 01°12' E 103°41'0 0.1
2018-Jan-22 08:58N 01°12' E 103°42'0 0.0
2018-Jan-22 08:28N 01°12' E 103°42'0 0.1
2018-Jan-22 07:58N 01°12' E 103°42'0 0.0
2018-Jan-22 07:28N 01°12' E 103°42'0 0.0
2018-Jan-22 06:58N 01°12' E 103°42'0 0.1
2018-Jan-22 06:19N 01°12' E 103°42'0 0.2
2018-Jan-22 06:01N 01°12' E 103°41'2 3.1
2018-Jan-22 05:30N 01°12' E 103°40'4 6.6
2018-Jan-22 04:58N 01°13' E 103°36'3 5.8
2018-Jan-22 04:30N 01°11' E 103°34'4 6.9
2018-Jan-22 03:59N 01°10' E 103°31'5 9.7
2018-Jan-22 03:30N 01°10' E 103°26'611.6
2018-Jan-22 02:59N 01°14' E 103°22'  

Dump ship's entire track history